Time;durP1;ratioP1;P1;durP2;ratioP2;P2;SDS_P1;SDS_P2;PMS_P1;PMS_P2;Temp;Humidity;BMP_temperature;BMP_pressure;BME280_temperature;BME280_humidity;BME280_pressure;Samples;Min_cycle;Max_cycle;Signal;HPM_P1;HPM_P2
2022/01/29 00:01:01;;;;;;;59.28;29.73;;;7.20;99.90;;;;;;5034038;28;20073;-51
2022/01/29 00:03:27;;;;;;;53.92;29.50;;;7.20;99.90;;;;;;5034022;28;20128;-52
2022/01/29 00:05:53;;;;;;;47.65;26.33;;;7.20;99.90;;;;;;5032926;28;20112;-51
2022/01/29 00:08:19;;;;;;;53.40;28.67;;;7.30;99.90;;;;;;5033062;28;20049;-54
2022/01/29 00:10:47;;;;;;;53.72;28.63;;;7.30;99.90;;;;;;5014199;28;20080;-51
2022/01/29 00:13:13;;;;;;;55.00;27.48;;;7.30;99.90;;;;;;5032556;28;20490;-51
2022/01/29 00:15:39;;;;;;;55.83;27.63;;;7.30;99.90;;;;;;5033652;28;20087;-51
2022/01/29 00:18:05;;;;;;;53.80;29.70;;;7.30;99.90;;;;;;5032925;28;20469;-52
2022/01/29 00:20:30;;;;;;;43.83;25.20;;;7.30;99.90;;;;;;5033639;28;20383;-50
2022/01/29 00:22:56;;;;;;;60.05;28.45;;;7.30;99.90;;;;;;5032338;28;20044;-51
2022/01/29 00:25:21;;;;;;;49.83;29.13;;;7.20;99.90;;;;;;5022626;28;20041;-52
2022/01/29 00:27:47;;;;;;;47.00;28.02;;;7.20;99.90;;;;;;5033027;28;20140;-53
2022/01/29 00:30:17;;;;;;;50.97;27.13;;;7.20;99.90;;;;;;5033355;28;20034;-51
2022/01/29 00:32:44;;;;;;;54.00;27.48;;;7.20;99.90;;;;;;5033040;28;20116;-51
2022/01/29 00:35:10;;;;;;;51.67;26.73;;;7.20;99.90;;;;;;5032854;28;20072;-52
2022/01/29 00:37:36;;;;;;;53.45;28.02;;;7.20;99.90;;;;;;5032562;28;20087;-51
2022/01/29 00:40:03;;;;;;;49.17;26.88;;;7.20;99.90;;;;;;5033321;28;20064;-52
2022/01/29 00:42:28;;;;;;;53.33;28.40;;;7.20;99.90;;;;;;5033141;28;20076;-52
2022/01/29 00:44:54;;;;;;;52.55;28.50;;;7.10;99.90;;;;;;5032757;28;20461;-52
2022/01/29 00:47:20;;;;;;;50.35;28.02;;;7.20;99.90;;;;;;5031113;28;20036;-52
2022/01/29 00:49:45;;;;;;;55.33;29.27;;;7.10;99.90;;;;;;5033254;28;20087;-52
2022/01/29 00:52:11;;;;;;;58.00;29.67;;;7.10;99.90;;;;;;5033126;28;20037;-54
2022/01/29 00:54:37;;;;;;;55.30;29.10;;;7.10;99.90;;;;;;5032623;28;20044;-54
2022/01/29 00:57:03;;;;;;;61.08;28.33;;;7.10;99.90;;;;;;5031212;28;20042;-52
2022/01/29 00:59:31;;;;;;;54.80;29.15;;;7.00;99.90;;;;;;5032864;28;20048;-54
2022/01/29 01:01:57;;;;;;;53.10;30.17;;;7.00;99.90;;;;;;5032006;28;20444;-54
2022/01/29 01:04:22;;;;;;;55.35;28.75;;;7.00;99.90;;;;;;5032631;28;20042;-52
2022/01/29 01:06:48;;;;;;;49.60;27.45;;;7.00;99.90;;;;;;5032509;28;20053;-51
2022/01/29 01:09:13;;;;;;;61.75;29.25;;;7.10;99.90;;;;;;5030595;28;20038;-51
2022/01/29 01:11:39;;;;;;;56.05;28.85;;;7.00;99.90;;;;;;5032422;28;20040;-54
2022/01/29 01:14:05;;;;;;;52.75;29.80;;;7.00;99.90;;;;;;5032196;28;20044;-52
2022/01/29 01:16:30;;;;;;;58.40;29.42;;;7.00;99.90;;;;;;5031949;28;20116;-53
2022/01/29 01:18:56;;;;;;;54.55;28.25;;;7.00;99.90;;;;;;5032511;28;20067;-52
2022/01/29 01:21:21;;;;;;;52.55;29.00;;;7.00;99.90;;;;;;5032545;28;20073;-52
2022/01/29 01:23:47;;;;;;;59.47;30.38;;;7.00;99.90;;;;;;5031744;28;20037;-55
2022/01/29 01:26:12;;;;;;;55.33;29.98;;;7.00;99.90;;;;;;5031980;28;20120;-53
2022/01/29 01:28:38;;;;;;;63.05;28.65;;;7.00;99.90;;;;;;5030290;28;20116;-53
2022/01/29 01:31:03;;;;;;;56.35;29.10;;;7.00;99.90;;;;;;5031681;28;20037;-52
2022/01/29 01:33:29;;;;;;;55.33;29.45;;;7.00;99.90;;;;;;5032278;28;20033;-53
2022/01/29 01:35:59;;;;;;;57.90;30.10;;;7.00;99.90;;;;;;5031793;28;20041;-53
2022/01/29 01:41:04;;;;;;;57.65;30.02;;;7.00;99.90;;;;;;5032152;28;20497;-52
2022/01/29 01:43:30;;;;;;;54.85;28.67;;;7.00;99.90;;;;;;5031394;28;20048;-52
2022/01/29 01:45:55;;;;;;;61.85;31.58;;;7.00;99.90;;;;;;5028408;28;20045;-51
2022/01/29 01:48:21;;;;;;;63.03;31.15;;;7.00;99.90;;;;;;5030123;28;20041;-51
2022/01/29 01:50:47;;;;;;;55.72;30.05;;;7.00;99.90;;;;;;5032022;28;20056;-52
2022/01/29 01:53:13;;;;;;;51.95;28.48;;;7.00;99.90;;;;;;5031270;28;20037;-51
2022/01/29 01:55:38;;;;;;;60.38;28.80;;;7.00;99.90;;;;;;5031902;28;20041;-51
2022/01/29 01:58:04;;;;;;;55.20;27.77;;;7.00;99.90;;;;;;5031315;28;20048;-53
2022/01/29 02:00:30;;;;;;;56.95;28.55;;;7.00;99.90;;;;;;5031938;28;20398;-51
2022/01/29 02:02:56;;;;;;;55.15;28.10;;;7.10;99.90;;;;;;5031956;28;20041;-52
2022/01/29 02:05:21;;;;;;;52.15;29.70;;;7.10;99.90;;;;;;5031669;28;20091;-52
2022/01/29 02:07:47;;;;;;;59.17;29.90;;;7.10;99.90;;;;;;5030658;28;20041;-52
2022/01/29 02:10:14;;;;;;;55.17;27.63;;;7.00;99.90;;;;;;5029753;28;20112;-51
2022/01/29 02:12:59;;;;;;;55.40;29.50;;;7.10;99.90;;;;;;5030666;28;20059;-51
2022/01/29 02:15:26;;;;;;;56.10;27.77;;;7.00;99.90;;;;;;5031420;28;20046;-51
2022/01/29 02:17:52;;;;;;;61.20;30.45;;;7.00;99.90;;;;;;5026399;28;20439;-51
2022/01/29 02:20:25;;;;;;;63.65;29.08;;;7.00;99.90;;;;;;5010624;28;20042;-52
2022/01/29 02:22:51;;;;;;;61.50;29.50;;;7.00;99.90;;;;;;5011938;28;20379;-54
2022/01/29 02:25:30;;;;;;;58.00;29.02;;;7.00;99.90;;;;;;5011621;28;20482;-52
2022/01/29 02:27:58;;;;;;;55.88;29.75;;;7.00;99.90;;;;;;5025913;28;20087;-55
2022/01/29 02:30:24;;;;;;;72.80;32.58;;;7.00;99.90;;;;;;5029838;28;20052;-53
2022/01/29 02:32:50;;;;;;;64.25;31.10;;;7.00;99.90;;;;;;5031421;28;20037;-53
2022/01/29 02:35:15;;;;;;;60.88;30.30;;;7.00;99.90;;;;;;5031393;28;20034;-52
2022/01/29 02:37:41;;;;;;;63.42;32.58;;;7.00;99.90;;;;;;5031217;28;20080;-52
2022/01/29 02:40:07;;;;;;;65.72;28.88;;;7.00;99.90;;;;;;5032244;28;20092;-54
2022/01/29 02:42:32;;;;;;;57.58;28.80;;;7.00;99.90;;;;;;5035124;28;20092;-53
2022/01/29 02:44:58;;;;;;;61.03;30.83;;;7.00;99.90;;;;;;5025575;22;20034;-53
2022/01/29 02:47:30;;;;;;;64.22;30.60;;;7.10;99.90;;;;;;4990436;28;20497;-52
2022/01/29 02:49:55;;;;;;;65.53;30.45;;;7.00;99.90;;;;;;4978440;28;20077;-52
2022/01/29 02:52:21;;;;;;;69.63;31.02;;;7.00;99.90;;;;;;4995601;28;20066;-51
2022/01/29 02:54:47;;;;;;;62.95;29.08;;;7.00;99.90;;;;;;4994766;28;20046;-52
2022/01/29 02:57:12;;;;;;;60.42;29.75;;;7.00;99.90;;;;;;4995137;28;20101;-51
2022/01/29 02:59:38;;;;;;;62.88;30.33;;;7.00;99.90;;;;;;5002585;28;20050;-52
2022/01/29 03:02:04;;;;;;;65.35;30.48;;;7.10;99.90;;;;;;4995554;28;20034;-52
2022/01/29 03:04:29;;;;;;;73.25;31.40;;;7.10;99.90;;;;;;4995197;28;20042;-52
2022/01/29 03:06:55;;;;;;;64.50;30.67;;;7.10;99.90;;;;;;4991245;28;20041;-52
2022/01/29 03:09:20;;;;;;;64.38;28.80;;;7.10;99.90;;;;;;4985244;28;20070;-52
2022/01/29 03:11:46;;;;;;;64.18;29.38;;;7.10;99.90;;;;;;4974684;28;20047;-52
2022/01/29 03:14:11;;;;;;;63.92;29.05;;;7.10;99.90;;;;;;4990757;28;20042;-52
2022/01/29 03:16:37;;;;;;;66.15;30.00;;;7.10;99.90;;;;;;4976551;28;20129;-52
2022/01/29 03:19:03;;;;;;;55.78;28.10;;;7.10;99.90;;;;;;4995311;28;20132;-49
2022/01/29 03:21:28;;;;;;;60.58;30.17;;;7.10;99.90;;;;;;4994939;28;20384;-52
2022/01/29 03:23:54;;;;;;;60.70;27.48;;;7.20;99.90;;;;;;4994564;28;20048;-52
2022/01/29 03:26:20;;;;;;;54.05;26.65;;;7.20;99.90;;;;;;4995203;28;20068;-52
2022/01/29 03:28:45;;;;;;;55.65;28.63;;;7.20;99.90;;;;;;4975999;28;20043;-50
2022/01/29 03:31:11;;;;;;;54.42;27.40;;;7.20;99.90;;;;;;4975663;28;20050;-52
2022/01/29 03:33:37;;;;;;;52.05;25.00;;;7.30;99.90;;;;;;4989826;28;20104;-52
2022/01/29 03:36:03;;;;;;;50.72;24.90;;;7.30;99.90;;;;;;4993431;28;20479;-52
2022/01/29 03:38:28;;;;;;;53.67;24.67;;;7.40;99.90;;;;;;4985057;28;20043;-52
2022/01/29 03:40:57;;;;;;;48.75;23.15;;;7.40;99.90;;;;;;5006539;28;20529;-52
2022/01/29 03:43:30;;;;;;;49.60;24.40;;;7.40;99.90;;;;;;4975475;28;20042;-53
2022/01/29 03:45:56;;;;;;;45.78;24.75;;;7.50;99.90;;;;;;4975449;28;20361;-48
2022/01/29 03:48:21;;;;;;;48.65;24.23;;;7.50;99.90;;;;;;4989989;28;20578;-51
2022/01/29 03:50:47;;;;;;;52.90;25.33;;;7.50;99.90;;;;;;4994533;28;20045;-50
2022/01/29 03:53:12;;;;;;;52.70;23.95;;;7.50;99.90;;;;;;4999249;28;20038;-52
2022/01/29 03:55:38;;;;;;;48.03;24.40;;;7.60;99.90;;;;;;4995227;28;20173;-52
2022/01/29 03:58:04;;;;;;;45.55;22.15;;;7.60;99.90;;;;;;4982146;28;20454;-52
2022/01/29 04:00:29;;;;;;;46.17;19.42;;;7.70;99.90;;;;;;4975116;28;20434;-53
2022/01/29 04:02:55;;;;;;;44.78;21.85;;;7.70;99.90;;;;;;5009158;28;20406;-53
2022/01/29 04:05:21;;;;;;;49.83;22.15;;;7.80;99.90;;;;;;4994066;28;20042;-52
2022/01/29 04:07:46;;;;;;;38.05;20.60;;;7.80;99.90;;;;;;4984651;28;20061;-49
2022/01/29 04:10:12;;;;;;;48.58;20.30;;;7.90;99.90;;;;;;4958092;28;20122;-51
2022/01/29 04:12:43;;;;;;;43.70;20.52;;;7.90;99.90;;;;;;4975017;28;20046;-52
2022/01/29 04:15:09;;;;;;;46.30;19.60;;;7.90;99.90;;;;;;4976120;28;20173;-52
2022/01/29 04:17:35;;;;;;;41.83;19.63;;;8.00;99.90;;;;;;4993640;28;20121;-52
2022/01/29 04:20:02;;;;;;;41.58;20.42;;;8.00;99.90;;;;;;4994030;28;20035;-53
2022/01/29 04:22:27;;;;;;;40.33;19.90;;;8.00;99.90;;;;;;4994266;28;20089;-50
2022/01/29 04:24:53;;;;;;;44.60;19.50;;;8.00;99.90;;;;;;4994027;28;20042;-52
2022/01/29 04:27:22;;;;;;;44.35;19.55;;;8.00;99.90;;;;;;4993544;28;20120;-51
2022/01/29 04:29:56;;;;;;;47.05;20.00;;;8.10;99.90;;;;;;4993838;28;20039;-51
2022/01/29 04:32:56;;;;;;;48.90;19.35;;;8.10;99.90;;;;;;4993230;28;20042;-51
2022/01/29 04:35:17;;;;;;;42.28;19.85;;;8.10;99.90;;;;;;4988202;28;20137;-52
2022/01/29 04:37:42;;;;;;;40.92;19.42;;;8.10;99.90;;;;;;4992754;28;20121;-51
2022/01/29 04:40:09;;;;;;;45.15;19.52;;;8.10;99.90;;;;;;4993321;28;20048;-52
2022/01/29 04:42:34;;;;;;;39.58;18.77;;;8.20;99.90;;;;;;5000535;28;20148;-50
2022/01/29 04:45:00;;;;;;;38.28;18.52;;;8.10;99.90;;;;;;4993282;28;20093;-52
2022/01/29 04:47:25;;;;;;;42.15;18.23;;;8.20;99.90;;;;;;4984265;28;20101;-52
2022/01/29 04:49:51;;;;;;;43.70;19.30;;;8.10;99.90;;;;;;4993316;28;20045;-52
2022/01/29 04:52:16;;;;;;;41.13;19.48;;;8.20;99.90;;;;;;4993649;28;20048;-52
2022/01/29 04:54:42;;;;;;;37.17;18.15;;;8.10;99.90;;;;;;4991450;28;20034;-51
2022/01/29 04:57:07;;;;;;;37.08;18.00;;;8.20;99.90;;;;;;4992705;28;20042;-49
2022/01/29 04:59:33;;;;;;;39.28;17.73;;;8.30;99.90;;;;;;4993428;28;20042;-51
2022/01/29 05:01:58;;;;;;;40.20;17.85;;;8.20;99.90;;;;;;4993521;28;20038;-49
2022/01/29 05:04:24;;;;;;;36.13;17.17;;;8.20;99.90;;;;;;4993366;28;20043;-50
2022/01/29 05:06:49;;;;;;;38.45;18.48;;;8.30;99.90;;;;;;4979479;28;20532;-49
2022/01/29 05:09:15;;;;;;;37.22;18.23;;;8.30;99.90;;;;;;4976403;28;20038;-50
2022/01/29 05:11:44;;;;;;;32.90;18.00;;;8.30;99.90;;;;;;4993289;28;20043;-49
2022/01/29 05:14:18;;;;;;;34.97;17.27;;;8.30;99.90;;;;;;4990923;28;20442;-49
2022/01/29 05:27:22;;;;;;;31.27;15.85;;;8.30;99.90;;;;;;4990948;28;20129;-52
2022/01/29 05:29:47;;;;;;;31.30;16.02;;;8.40;99.90;;;;;;4992500;28;20122;-49
2022/01/29 05:32:15;;;;;;;35.13;15.68;;;8.40;99.90;;;;;;4993063;28;20042;-52
2022/01/29 05:34:40;;;;;;;33.20;15.95;;;8.40;99.90;;;;;;4983652;28;20071;-49
2022/01/29 05:37:06;;;;;;;31.98;16.63;;;8.40;99.90;;;;;;4973261;28;20078;-51
2022/01/29 05:39:32;;;;;;;31.23;15.98;;;8.50;99.90;;;;;;4973450;28;20054;-52
2022/01/29 05:41:58;;;;;;;30.52;16.35;;;8.40;99.90;;;;;;4991512;28;20049;-52
2022/01/29 05:44:24;;;;;;;35.10;16.50;;;8.50;99.90;;;;;;4974128;28;20049;-52
2022/01/29 05:46:50;;;;;;;30.23;16.20;;;8.50;99.90;;;;;;4992881;28;20046;-52
2022/01/29 05:49:16;;;;;;;37.28;18.30;;;8.60;99.90;;;;;;4992258;28;20057;-52
2022/01/29 05:51:41;;;;;;;32.78;16.83;;;8.50;99.90;;;;;;4992504;28;20030;-51
2022/01/29 05:54:07;;;;;;;30.50;16.42;;;8.50;99.90;;;;;;4987575;28;20039;-48
2022/01/29 05:56:32;;;;;;;28.15;15.63;;;8.50;99.90;;;;;;4973087;28;20112;-50
2022/01/29 05:58:58;;;;;;;31.75;15.88;;;8.60;99.90;;;;;;4973003;28;20038;-52
2022/01/29 06:01:24;;;;;;;31.02;16.63;;;8.60;99.90;;;;;;4977845;28;20046;-50
2022/01/29 06:03:50;;;;;;;27.35;15.95;;;8.60;99.90;;;;;;4991254;28;20042;-51
2022/01/29 06:06:15;;;;;;;32.60;16.70;;;8.60;99.90;;;;;;4992242;28;20046;-52
2022/01/29 06:08:41;;;;;;;32.53;14.95;;;8.70;99.90;;;;;;4993530;28;20089;-51
2022/01/29 06:11:07;;;;;;;32.40;15.20;;;8.60;99.90;;;;;;4994960;28;20042;-54
2022/01/29 06:13:33;;;;;;;32.25;15.27;;;8.60;99.90;;;;;;4992106;28;20039;-54
2022/01/29 06:16:00;;;;;;;28.08;14.40;;;8.60;99.90;;;;;;4982276;28;20414;-54
2022/01/29 06:18:26;;;;;;;26.05;14.20;;;8.60;99.90;;;;;;4990016;28;20053;-54
2022/01/29 06:20:56;;;;;;;32.85;14.02;;;8.70;99.90;;;;;;4992013;28;20060;-54
2022/01/29 06:23:29;;;;;;;25.83;13.52;;;8.70;99.90;;;;;;4991981;28;20405;-52
2022/01/29 06:25:55;;;;;;;29.92;14.13;;;8.70;99.90;;;;;;4974627;28;20075;-55
2022/01/29 06:28:21;;;;;;;24.20;13.35;;;8.70;99.90;;;;;;4987677;28;20100;-54
2022/01/29 06:30:46;;;;;;;21.85;13.68;;;8.70;99.90;;;;;;4991482;28;20050;-55
2022/01/29 06:33:13;;;;;;;32.38;13.82;;;8.70;99.90;;;;;;4991866;28;20088;-53
2022/01/29 06:35:40;;;;;;;36.00;14.07;;;8.70;99.90;;;;;;4990456;28;20046;-53
2022/01/29 06:38:07;;;;;;;25.77;13.77;;;8.70;99.90;;;;;;4990676;28;20058;-55
2022/01/29 06:40:33;;;;;;;27.92;13.88;;;8.70;99.90;;;;;;4992168;28;20053;-55
2022/01/29 06:43:01;;;;;;;23.58;12.65;;;8.80;99.90;;;;;;4992018;28;20081;-55
2022/01/29 06:45:28;;;;;;;21.77;11.85;;;8.70;99.90;;;;;;4988850;28;20043;-55
2022/01/29 06:47:54;;;;;;;22.73;11.18;;;8.70;99.90;;;;;;4991675;28;20046;-54
2022/01/29 06:50:20;;;;;;;24.95;11.85;;;8.80;99.90;;;;;;4990804;28;20045;-53
2022/01/29 06:52:45;;;;;;;25.55;12.18;;;8.80;99.90;;;;;;4991895;28;20106;-54
2022/01/29 06:55:11;;;;;;;20.85;11.68;;;8.80;99.90;;;;;;4980288;28;20067;-53
2022/01/29 06:57:36;;;;;;;26.48;12.05;;;8.80;99.90;;;;;;5004229;28;20031;-53
2022/01/29 07:00:03;;;;;;;24.35;11.75;;;8.70;99.90;;;;;;4991486;28;20038;-55
2022/01/29 07:02:29;;;;;;;22.83;11.52;;;8.70;99.90;;;;;;4990441;28;20053;-51
2022/01/29 07:04:54;;;;;;;22.52;11.98;;;8.80;99.90;;;;;;4988460;28;20030;-52
2022/01/29 07:07:20;;;;;;;21.50;12.18;;;8.80;99.90;;;;;;4991799;28;20517;-52
2022/01/29 07:09:45;;;;;;;22.90;11.32;;;8.80;99.90;;;;;;4991132;28;20057;-50
2022/01/29 07:12:12;;;;;;;26.33;11.88;;;8.80;99.90;;;;;;4993296;28;20030;-51
2022/01/29 07:14:39;;;;;;;25.75;12.13;;;8.80;99.90;;;;;;4987963;28;20045;-49
2022/01/29 07:17:10;;;;;;;22.60;11.77;;;8.80;99.90;;;;;;4990172;28;20537;-53
2022/01/29 07:19:35;;;;;;;26.02;11.80;;;8.80;99.90;;;;;;4989057;28;20121;-50
2022/01/29 07:22:01;;;;;;;22.02;12.13;;;8.80;99.90;;;;;;4990433;28;20121;-50
2022/01/29 07:24:27;;;;;;;22.70;11.25;;;8.80;99.90;;;;;;4986922;28;20122;-51
2022/01/29 07:27:20;;;;;;;26.67;12.60;;;8.80;99.90;;;;;;4990008;28;20085;-53
2022/01/29 07:29:46;;;;;;;26.73;11.45;;;8.80;99.90;;;;;;4998976;28;20113;-53
2022/01/29 07:32:12;;;;;;;24.55;10.93;;;8.80;99.90;;;;;;4997784;28;20035;-53
2022/01/29 07:34:37;;;;;;;25.08;11.32;;;8.80;99.90;;;;;;4996441;28;20085;-54
2022/01/29 07:37:04;;;;;;;25.23;11.73;;;8.80;99.90;;;;;;4996909;28;20044;-54
2022/01/29 07:39:30;;;;;;;26.52;12.35;;;8.80;99.90;;;;;;4994932;28;20085;-54
2022/01/29 07:41:56;;;;;;;21.55;12.18;;;8.90;99.90;;;;;;4994299;28;20046;-53
2022/01/29 07:44:22;;;;;;;19.83;10.75;;;8.90;99.90;;;;;;4994363;28;20057;-54
2022/01/29 07:46:48;;;;;;;21.95;12.07;;;8.90;99.90;;;;;;4987848;28;20031;-54
2022/01/29 07:49:14;;;;;;;20.08;10.23;;;8.90;99.90;;;;;;4982957;28;20043;-54
2022/01/29 07:51:40;;;;;;;20.58;11.13;;;8.90;99.90;;;;;;4993378;28;20046;-53
2022/01/29 07:54:06;;;;;;;22.33;11.77;;;8.90;99.90;;;;;;4994358;28;20042;-54
2022/01/29 07:56:33;;;;;;;17.67;11.02;;;8.90;99.90;;;;;;4992450;28;20487;-54
2022/01/29 07:58:59;;;;;;;24.85;10.95;;;8.90;99.90;;;;;;4994624;28;20454;-53
2022/01/29 08:01:24;;;;;;;25.55;11.88;;;8.90;99.90;;;;;;4994654;28;20046;-54
2022/01/29 08:03:51;;;;;;;19.30;10.80;;;8.90;99.90;;;;;;4994632;28;20498;-53
2022/01/29 08:06:19;;;;;;;22.40;11.40;;;8.90;99.90;;;;;;4992164;28;20582;-51
2022/01/29 08:08:45;;;;;;;25.45;12.70;;;8.90;99.90;;;;;;4975485;28;20046;-51
2022/01/29 08:11:13;;;;;;;25.15;11.20;;;9.00;99.90;;;;;;4990070;28;20453;-51
2022/01/29 08:13:39;;;;;;;25.55;11.45;;;8.90;99.90;;;;;;4984518;28;20100;-48
2022/01/29 08:16:05;;;;;;;22.00;10.50;;;9.00;99.90;;;;;;4992143;28;20045;-50
2022/01/29 08:18:31;;;;;;;23.05;10.75;;;9.00;99.90;;;;;;4992388;28;20125;-52
2022/01/29 08:20:57;;;;;;;18.50;9.88;;;9.00;99.90;;;;;;4993044;28;20113;-53
2022/01/29 08:23:23;;;;;;;25.20;10.95;;;9.00;99.90;;;;;;4994247;28;20109;-53
2022/01/29 08:25:48;;;;;;;22.25;9.30;;;9.00;99.90;;;;;;4993890;28;20046;-52
2022/01/29 08:28:14;;;;;;;18.08;8.80;;;9.00;99.90;;;;;;4986447;28;20057;-49
2022/01/29 08:30:40;;;;;;;21.30;9.35;;;9.00;99.90;;;;;;4993758;28;20089;-49
2022/01/29 08:33:06;;;;;;;21.27;9.90;;;9.10;99.90;;;;;;4999370;28;20526;-51
2022/01/29 08:35:32;;;;;;;23.05;8.80;;;9.10;99.90;;;;;;4992101;28;20465;-51
2022/01/29 08:37:59;;;;;;;18.25;7.95;;;9.10;99.90;;;;;;4984671;28;20046;-50
2022/01/29 08:40:25;;;;;;;16.08;8.00;;;9.10;99.90;;;;;;4993064;28;20104;-48
2022/01/29 08:42:52;;;;;;;18.95;8.88;;;9.20;99.90;;;;;;4996880;28;20042;-51
2022/01/29 08:45:17;;;;;;;18.92;8.00;;;9.20;99.90;;;;;;5012588;22;20054;-50
2022/01/29 08:47:43;;;;;;;15.35;7.80;;;9.20;99.90;;;;;;5031059;28;20110;-51
2022/01/29 08:50:11;;;;;;;16.73;8.13;;;9.30;99.90;;;;;;5033183;28;20509;-51
2022/01/29 08:52:37;;;;;;;15.00;8.63;;;9.30;99.90;;;;;;5032387;28;20160;-51
2022/01/29 08:55:05;;;;;;;13.80;7.90;;;9.20;99.90;;;;;;5020219;28;20049;-53
2022/01/29 08:57:30;;;;;;;14.20;7.78;;;9.20;99.90;;;;;;5022303;28;20037;-52
2022/01/29 08:59:56;;;;;;;18.60;8.02;;;9.20;99.90;;;;;;5031486;28;20413;-51
2022/01/29 09:02:22;;;;;;;22.17;8.52;;;9.20;99.90;;;;;;5031468;28;20048;-52
2022/01/29 09:04:48;;;;;;;20.30;8.52;;;9.20;99.90;;;;;;5032716;28;20534;-52
2022/01/29 09:07:14;;;;;;;17.70;8.05;;;9.20;99.90;;;;;;5034434;28;20037;-53
2022/01/29 09:09:43;;;;;;;14.73;8.18;;;9.30;99.90;;;;;;5032564;28;20092;-52
2022/01/29 09:12:10;;;;;;;15.63;8.15;;;9.20;99.90;;;;;;5032476;28;20136;-54
2022/01/29 09:14:35;;;;;;;17.27;8.27;;;9.30;99.90;;;;;;5031800;28;20061;-50
2022/01/29 09:17:01;;;;;;;22.65;9.43;;;9.30;99.90;;;;;;5022970;28;20077;-52
2022/01/29 09:19:26;;;;;;;16.45;7.90;;;9.30;99.90;;;;;;5029898;28;20033;-52
2022/01/29 09:21:52;;;;;;;17.10;9.38;;;9.30;99.90;;;;;;5031937;28;20034;-52
2022/01/29 09:24:17;;;;;;;15.07;8.85;;;9.30;99.90;;;;;;5030770;28;20049;-54
2022/01/29 09:26:43;;;;;;;14.05;7.90;;;9.30;99.90;;;;;;5038731;28;20033;-50
2022/01/29 09:29:08;;;;;;;17.15;8.55;;;9.30;99.90;;;;;;5022950;28;20038;-52
2022/01/29 09:31:34;;;;;;;16.05;7.95;;;9.30;99.90;;;;;;5029767;28;20043;-52
2022/01/29 09:33:59;;;;;;;17.25;8.15;;;9.40;99.90;;;;;;5031499;28;20468;-52
2022/01/29 09:36:25;;;;;;;16.80;8.45;;;9.40;99.90;;;;;;5031337;28;20034;-52
2022/01/29 09:38:50;;;;;;;17.65;8.15;;;9.40;99.90;;;;;;5025888;28;20105;-52
2022/01/29 09:41:18;;;;;;;17.40;8.93;;;9.40;99.90;;;;;;5028288;28;20077;-55
2022/01/29 09:43:45;;;;;;;17.75;8.38;;;9.40;99.90;;;;;;5027292;28;20064;-52
2022/01/29 09:46:11;;;;;;;15.60;7.65;;;9.50;99.90;;;;;;5024906;28;20393;-52
2022/01/29 09:48:37;;;;;;;16.05;7.45;;;9.50;99.90;;;;;;5007692;28;20117;-52
2022/01/29 09:51:05;;;;;;;14.23;7.28;;;9.50;99.90;;;;;;5022523;28;20124;-54
2022/01/29 09:53:30;;;;;;;19.08;7.60;;;9.50;99.90;;;;;;5027159;28;20041;-53
2022/01/29 09:55:56;;;;;;;18.02;7.53;;;9.60;99.90;;;;;;5021583;28;20544;-52
2022/01/29 09:58:21;;;;;;;17.00;7.43;;;9.60;99.90;;;;;;5025394;28;20061;-52
2022/01/29 10:00:47;;;;;;;11.55;6.07;;;9.60;99.90;;;;;;5009485;28;20042;-53
2022/01/29 10:03:14;;;;;;;14.48;6.55;;;9.60;99.90;;;;;;5020445;28;20033;-55
2022/01/29 10:05:42;;;;;;;16.25;6.43;;;9.60;99.90;;;;;;5026522;28;20044;-51
2022/01/29 10:08:09;;;;;;;12.57;5.53;;;9.70;99.90;;;;;;5023996;28;20038;-52
2022/01/29 10:10:39;;;;;;;14.20;6.25;;;9.70;99.90;;;;;;5022210;28;20478;-53
2022/01/29 10:13:25;;;;;;;11.90;5.63;;;9.70;99.90;;;;;;5026830;28;20091;-54
2022/01/29 10:15:52;;;;;;;16.20;5.53;;;9.70;99.90;;;;;;5022904;28;20091;-51
2022/01/29 10:18:23;;;;;;;12.05;5.50;;;9.70;99.90;;;;;;5009996;28;20048;-52
2022/01/29 10:20:50;;;;;;;15.82;6.78;;;9.80;99.90;;;;;;5007825;28;20041;-55
2022/01/29 10:23:16;;;;;;;13.45;5.03;;;9.70;99.90;;;;;;5027613;28;20048;-52
2022/01/29 10:25:44;;;;;;;17.17;6.57;;;9.80;99.90;;;;;;5025951;28;20116;-52
2022/01/29 10:28:16;;;;;;;12.43;5.43;;;9.80;99.90;;;;;;5028552;28;20079;-53
2022/01/29 10:30:51;;;;;;;13.70;5.77;;;9.80;99.90;;;;;;5027805;28;20084;-51
2022/01/29 10:33:31;;;;;;;12.10;4.78;;;9.80;99.90;;;;;;5006816;28;20033;-52
2022/01/29 10:35:59;;;;;;;14.05;5.45;;;9.80;99.90;;;;;;5028277;28;20034;-52
2022/01/29 10:38:52;;;;;;;12.88;4.70;;;9.90;99.90;;;;;;5026550;28;20045;-51
2022/01/29 10:41:22;;;;;;;13.90;5.38;;;9.90;99.90;;;;;;5022716;28;20099;-52
2022/01/29 10:44:11;;;;;;;11.20;4.68;;;9.90;99.90;;;;;;5029139;28;20130;-50
2022/01/29 10:46:57;;;;;;;11.35;4.20;;;9.90;99.90;;;;;;5027917;28;20036;-51
2022/01/29 10:49:28;;;;;;;11.75;3.78;;;9.90;99.90;;;;;;5025805;28;20041;-52
2022/01/29 10:52:05;;;;;;;11.95;3.90;;;10.00;99.90;;;;;;5020562;28;20045;-52
2022/01/29 10:54:33;;;;;;;12.50;3.30;;;10.10;99.90;;;;;;5012199;28;20041;-53
2022/01/29 10:57:04;;;;;;;8.73;3.55;;;10.10;99.90;;;;;;5030833;28;20052;-55
2022/01/29 10:59:33;;;;;;;7.25;2.70;;;10.20;99.90;;;;;;5030946;28;20397;-53
2022/01/29 11:02:03;;;;;;;9.88;3.20;;;10.30;99.90;;;;;;5032977;28;20037;-52
2022/01/29 11:04:31;;;;;;;8.35;2.80;;;10.30;99.90;;;;;;5035031;28;20045;-52
2022/01/29 11:07:01;;;;;;;11.43;3.28;;;10.30;99.90;;;;;;5016682;28;20080;-53
2022/01/29 11:09:28;;;;;;;7.90;2.80;;;10.40;99.90;;;;;;5013617;28;20098;-54
2022/01/29 11:11:57;;;;;;;12.15;2.95;;;10.40;99.90;;;;;;5030069;28;20056;-52
2022/01/29 11:14:24;;;;;;;12.48;2.92;;;10.50;99.90;;;;;;5033778;28;20087;-51
2022/01/29 11:16:52;;;;;;;8.30;2.42;;;10.50;99.90;;;;;;5029740;28;20091;-52
2022/01/29 11:19:18;;;;;;;5.82;2.38;;;10.50;99.90;;;;;;5036698;28;20087;-53
2022/01/29 11:21:47;;;;;;;5.72;2.45;;;10.50;99.90;;;;;;5032296;28;20041;-51
2022/01/29 11:24:18;;;;;;;12.25;2.58;;;10.50;99.90;;;;;;5028856;28;20117;-50
2022/01/29 11:26:45;;;;;;;12.88;2.83;;;10.50;99.90;;;;;;5024512;28;20037;-55
2022/01/29 11:29:25;;;;;;;11.18;2.95;;;10.60;99.90;;;;;;5028423;28;20501;-52
2022/01/29 11:32:21;;;;;;;8.68;2.60;;;10.50;99.90;;;;;;5027419;28;20087;-52
2022/01/29 11:35:01;;;;;;;9.88;2.83;;;10.50;99.90;;;;;;5028488;28;20037;-49
2022/01/29 11:37:42;;;;;;;6.88;2.38;;;10.60;99.90;;;;;;5036571;28;20113;-50
2022/01/29 11:40:11;;;;;;;10.00;3.22;;;10.60;99.90;;;;;;5032152;28;20065;-50
2022/01/29 11:42:36;;;;;;;8.85;2.20;;;10.60;99.90;;;;;;5032289;28;20041;-49
2022/01/29 11:45:31;;;;;;;10.10;2.47;;;10.60;99.90;;;;;;5032398;28;20046;-50
2022/01/29 11:47:57;;;;;;;9.13;2.95;;;10.60;99.90;;;;;;5017351;28;20042;-49
2022/01/29 11:50:28;;;;;;;11.00;2.40;;;10.60;99.90;;;;;;5030247;28;20041;-51
2022/01/29 11:53:01;;;;;;;7.90;2.03;;;10.60;99.90;;;;;;5027932;28;20034;-55
2022/01/29 11:55:44;;;;;;;8.00;2.97;;;10.60;99.90;;;;;;5026980;28;20034;-55
2022/01/29 11:58:22;;;;;;;9.73;2.63;;;10.60;99.90;;;;;;5010262;28;20041;-52
2022/01/29 12:00:51;;;;;;;7.35;2.28;;;10.60;99.90;;;;;;5028355;28;20038;-52
2022/01/29 12:08:59;;;;;;;4.72;1.70;;;10.80;99.90;;;;;;5032795;28;20053;-53
2022/01/29 12:11:25;;;;;;;8.38;2.00;;;10.90;99.90;;;;;;5031836;28;20041;-56
2022/01/29 12:14:11;;;;;;;10.07;2.15;;;10.80;99.90;;;;;;5031584;28;20034;-55
2022/01/29 12:16:57;;;;;;;6.20;2.25;;;10.90;99.90;;;;;;5032422;28;20036;-51
2022/01/29 12:19:36;;;;;;;7.03;1.90;;;10.80;99.90;;;;;;5035083;28;20167;-53
2022/01/29 12:22:34;;;;;;;8.73;2.08;;;10.90;99.90;;;;;;5013498;28;20049;-52
2022/01/29 12:25:02;;;;;;;9.20;2.15;;;10.80;99.90;;;;;;4998389;28;20575;-52
2022/01/29 12:27:44;;;;;;;9.20;2.22;;;10.80;99.90;;;;;;5025348;28;20103;-53
2022/01/29 12:30:11;;;;;;;;;;;10.80;99.90;;;;;;5027075;28;20045;-52
2022/01/29 12:32:36;;;;;;;9.90;2.50;;;10.80;99.90;;;;;;5030856;28;19978;-49
2022/01/29 12:35:03;;;;;;;9.90;2.45;;;10.80;99.90;;;;;;5031678;28;20037;-52
2022/01/29 12:37:30;;;;;;;12.60;3.22;;;10.80;99.90;;;;;;5032129;28;20436;-55
2022/01/29 12:40:17;;;;;;;10.90;2.45;;;10.80;99.90;;;;;;5031757;28;20029;-53
2022/01/29 12:42:45;;;;;;;9.70;2.60;;;10.80;99.90;;;;;;5015033;28;20029;-52
2022/01/29 12:45:12;;;;;;;11.63;2.63;;;10.80;99.90;;;;;;5032475;28;20033;-52
2022/01/29 12:47:38;;;;;;;9.35;2.60;;;10.80;99.90;;;;;;5031405;28;20043;-51
2022/01/29 12:50:04;;;;;;;10.05;2.45;;;10.80;99.90;;;;;;5024325;28;20041;-55
2022/01/29 12:52:31;;;;;;;10.13;2.95;;;10.80;99.90;;;;;;5015371;28;20030;-55
2022/01/29 12:54:59;;;;;;;8.48;2.30;;;10.90;99.90;;;;;;5013117;28;20045;-51
2022/01/29 12:57:26;;;;;;;10.98;2.72;;;10.90;99.90;;;;;;5013228;28;20088;-53
2022/01/29 12:59:52;;;;;;;11.45;2.47;;;10.90;99.90;;;;;;5018297;28;20043;-49
2022/01/29 13:02:21;;;;;;;8.70;2.20;;;10.90;99.90;;;;;;5031828;28;20112;-49